Middlesboro, Kentucky
Current Conditions -  °F | °C
As of 8:55 PM on Monday 24 Nov 2014 (Local Time) from K1A6 Reporting Station
Clear Clear  
Wind Chill: 55°   Ceiling: Unl
Heat Index: 55°   Visibility: 10mi
Dew Point: 36°   Wind: 5mph
Humidity: 48%   Direction: 260°W
Pressure: 29.92"   Gusts: NA
Location:  36.61°N, 83.72°W
Report Text: K1A6 250155Z AUTO 26004KT 10SM CLR 13/02 A2992 RMK AO2 T01290021
Loading
Personal Weather Stations






























Interactive Weather Map New forecast layout! Learn more

10-Day Weather Forecast

Advertisements
Track Severe Weather on mobile